Indian River Shores, Florida
Current Conditions -  °F | °C
As of 9:53 AM on Saturday 20 Dec 2014 (Local Time) from KVRB Reporting Station
Broken Clouds Broken Clouds  
Wind Chill: 22°   Ceiling: 3600
Heat Index: 22°   Visibility: 10mi
Dew Point: 17°   Wind: 0mph
Humidity: 73%   Direction: NA
Pressure: 30.13"   Gusts: NA
Location:  27.7066°N, 80.3826°W
Report Text: KVRB 201453Z 00000KT 10SM SCT029 BKN036 22/17 A3013 RMK AO2 SLP201 T02170167 50012
Loading
Personal Weather Stations






























Interactive Weather Map New forecast layout! Learn more

10-Day Weather Forecast

Advertisements
Track Severe Weather on mobile